Holcomb, New York
Current Conditions -  °F | °C
As of 11:13 PM on Thursday 18 Dec 2014 (Local Time) from KROC Reporting Station
Light Snow Light Snow  
Wind Chill: 19°   Ceiling: 900
Heat Index: 29°   Visibility: 9mi
Dew Point: 25°   Wind: 13mph
Humidity: 85%   Direction: 330°NNW
Pressure: 30.06"   Gusts: NA
Location:  42.876°N, 77.4636°W
Report Text: KROC 190413Z 33011KT 9SM -FZDZSN OVC009 M02/M04 A3006 RMK AO2 P0000 I1000 T10171039
Loading
Personal Weather Stations






























Interactive Weather Map New forecast layout! Learn more

10-Day Weather Forecast

Advertisements
Track Severe Weather on mobile